Chatham-Kent, Ontario

Past 24 Hour Conditions

This table is a summary of hourly weather conditions for the past 24 hours. This summary includes the following parameters: temperature, humidity, dew point, wind speed and direction, air pressure, visibility and/or wind chill and humidex.
Date / Time
(EDT)
Conditions Temp (°F) Humidity (%) Dew Point (°F) Wind (mph) Pressure (inches) Vis (mi) Humidex
21 August 2014
00:00 Clear 65   94 63 SW 2 29.9 8 *
20 August 2014
23:00 Mostly Cloudy 69 90 66 WNW 2 29.9 10 80
22:00 Cloudy 71 89 67 NW 3 29.9 10 84
21:00 Clear 69 92 67 SW 5 29.9 10 82
20:00 Partly Cloudy 76 83 70 WSW 5 29.9 9 91
19:00 Partly Cloudy 77 80 70 SSW 6 29.9 10 92
18:00 Sunny 80   67 68 WSW 9 29.9 10 94
17:00 Sunny 80   65 68 WSW 15 gust 22 29.9 10 94
16:00 Thunderstorm 78 69 68 W 11 gust 20 29.9 10 91
15:00 Thunderstorm 78 80 72 SSW 8 29.9 4 95
14:00 Mostly Cloudy 76 83 70 SW 13 29.9 8 91
13:00 Cloudy 75 83 69 SSW 10 29.9 10 89
12:00 Cloudy 74 84 69 SSW 10 29.9 10 88
11:00 Cloudy 72 85 68 SW 13 29.9 10 85
10:00 Cloudy 72 87 68 SSW 14 29.9 10 85
9:00 Cloudy 71 89 67 SSW 13 29.9 10 83
8:00 Cloudy 69 92 67 SSW 9 29.8 10 81
7:00 Cloudy 70 92 67 SSW 13 29.8 10 83
6:00 Mostly Cloudy 69 95 67 SSW 7 29.8 9 82
5:00 Cloudy 69 95 68 S 5 29.8 7 83
4:00 Cloudy 68 94 67 SSE 8 29.8 10 81
3:00 Cloudy 69 93 67 SSW 9 29.8 10 82
2:00 Mostly Cloudy 68 94 67 S 8 29.8 10 81
1:00 Cloudy 69 93 67 S 9 29.8 10 81
00:00 Cloudy 67 94 66 S 10 29.8 10 *
N/A
Not available
 ↑ 
Highest temperature
 ↓ 
Lowest temperature
*
Value not significant.

If you require additional historical weather information, please visit Climate Data Online.